Norwegian Epic — C6XP7 — position and weather

sailwx.info

Track history (hours):
 
Tides and Currents Weather Stations Pressure Air Temp Water Temp Dewpoint Dewpoint Depression Visibility Wind Speed Wind Dir Waves Ship Positions

Norwegian Epic

Last reported at 2014-Jul-23 23:33 UTC. Time now 2014-Jul-24 00:18 UTC.
Position N 42°25' E 009°53'.

Length 329 m; draft 9 m.

Type: Passenger vessel. MMSI: 311018500.

Date/timePositionNaut miles runAvg speedWind from/ knotsBaromVisibWave heightAir tempDewpointWater temp
2014-Jul-23 23:33N 42°25' E 009°53'1312.5
2014-Jul-23 22:33N 42°15' E 010°04'2115.3
2014-Jul-23 21:10N 42°08' E 010°31'1315.4
2014-Jul-23 20:18N 42°04' E 010°48'1215.5
2014-Jul-23 19:33N 42°01' E 011°03'60 3.1
2014-Jul-23 00:00N 41°24' E 012°06'6317.5 1009.010.8 1.022.0 22.0
2014-Jul-22 20:23N 40°42' E 013°08'1518.4
2014-Jul-22 19:33N 40°40' E 013°28'1818.4
2014-Jul-22 18:33N 40°38' E 013°52'1717.4
2014-Jul-22 17:33N 40°45' E 014°13'5 0.7
2014-Jul-22 09:23N 40°50' E 014°16'0 0.0
2014-Jul-22 04:25N 40°50' E 014°16'8 9.9
2014-Jul-22 03:33N 40°42' E 014°11'1313.0
2014-Jul-22 02:33N 40°38' E 013°55'1514.7
2014-Jul-22 01:34N 40°39' E 013°36'1616.0
2014-Jul-22 00:34N 40°41' E 013°15'10816.5
2014-Jul-21 18:00N 41°00' E 010°54'24515.8 360 / 271011.010.8 2.522.015.823.0
2014-Jul-21 02:30N 41°16' E 005°30'1915.8
2014-Jul-21 01:20N 41°16' E 005°05'1416.0
2014-Jul-21 00:28N 41°16' E 004°46'1516.0
2014-Jul-20 23:33N 41°16' E 004°27'1616.0
2014-Jul-20 22:33N 41°16' E 004°06'1916.1
2014-Jul-20 21:22N 41°16' E 003°40'1214.9
2014-Jul-20 20:32N 41°16' E 003°24'1515.4
2014-Jul-20 19:33N 41°16' E 003°04'1615.9
2014-Jul-20 18:31N 41°16' E 002°42'1414.9
2014-Jul-20 17:33N 41°15' E 002°23'1110.9
2014-Jul-20 16:33N 41°21' E 002°10'1 1.0
2014-Jul-20 15:29N 41°22' E 002°11'0 0.0
2014-Jul-20 14:33N 41°22' E 002°11'0 0.0
2014-Jul-20 13:31N 41°22' E 002°11'0 0.0
2014-Jul-20 12:31N 41°22' E 002°11'0 0.0
2014-Jul-20 11:26N 41°22' E 002°11'0 0.0
2014-Jul-20 10:27N 41°22' E 002°11'0 0.0
2014-Jul-20 09:21N 41°22' E 002°11'0 0.0
2014-Jul-20 08:28N 41°22' E 002°11'0 0.0
2014-Jul-20 07:29N 41°22' E 002°11'0 0.0
2014-Jul-20 06:29N 41°22' E 002°11'0 0.0
2014-Jul-20 05:30N 41°22' E 002°11'0 0.0
2014-Jul-20 04:25N 41°22' E 002°11'0 0.0
2014-Jul-20 03:31N 41°22' E 002°11'0 0.0
2014-Jul-20 02:29N 41°22' E 002°11'4 4.0
2014-Jul-20 01:34N 41°18' E 002°11'1615.8
2014-Jul-20 00:33N 41°02' E 002°11'1526.2
2014-Jul-20 00:00N 40°48' E 002°06'716.1 320 / 61010.0 5.4 23.0
2014-Jul-19 23:34N 40°43' E 002°12'1919.2
2014-Jul-19 22:33N 40°23' E 002°12'1817.8
2014-Jul-19 21:33N 40°05' E 002°12'1818.4
2014-Jul-19 20:33N 39°47' E 002°13'1716.6
2014-Jul-19 19:33N 39°31' E 002°17'1414.5
2014-Jul-19 18:33N 39°27' E 002°35'6 6.3
2014-Jul-19 17:33N 39°33' E 002°38'0 0.0
2014-Jul-19 16:32N 39°33' E 002°38'0 0.0
2014-Jul-19 15:32N 39°33' E 002°38'0 0.0
2014-Jul-19 14:33N 39°33' E 002°38'0 0.0
2014-Jul-19 13:31N 39°33' E 002°38'0 0.0
2014-Jul-19 12:31N 39°33' E 002°38'0 0.0
2014-Jul-19 11:32N 39°33' E 002°38'0 0.0
2014-Jul-19 10:33N 39°33' E 002°38'4 3.7
2014-Jul-19 09:33N 39°30' E 002°37'1515.1
2014-Jul-19 08:33N 39°31' E 002°17'1817.8
2014-Jul-19 07:33N 39°47' E 002°25'2121.0
2014-Jul-19 06:33N 40°04' E 002°43'1221.4
2014-Jul-19 06:00N 40°12' E 002°54'920.8 020 / 561010.010.8 2.023.020.124.0
2014-Jul-19 05:33N 40°19' E 003°02'2121.0
2014-Jul-19 04:34N 40°33' E 003°22'2121.0
2014-Jul-19 03:33N 40°48' E 003°41'2120.9
2014-Jul-19 02:34N 41°03' E 004°01'2120.6
2014-Jul-19 01:33N 41°17' E 004°21'2120.7
2014-Jul-19 00:33N 41°33' E 004°39'813.4
2014-Jul-19 00:00N 41°36' E 004°48'1432.2 150 / 141015.010.8 21.0
2014-Jul-18 23:34N 41°47' E 005°00'2121.2
2014-Jul-18 22:34N 42°01' E 005°21'2121.2
2014-Jul-18 21:34N 42°16' E 005°41'2121.4
2014-Jul-18 20:33N 42°31' E 006°02'2121.3
2014-Jul-18 19:33N 42°46' E 006°22'2222.1
2014-Jul-18 18:33N 43°02' E 006°43'2221.6
2014-Jul-18 17:33N 43°21' E 006°57'1111.4
2014-Jul-18 16:33N 43°32' E 007°01'0 0.1
2014-Jul-18 15:28N 43°32' E 007°01'0 0.0
2014-Jul-18 14:29N 43°32' E 007°01'0 0.0
2014-Jul-18 13:29N 43°32' E 007°01'0 0.0
2014-Jul-18 12:30N 43°32' E 007°01'0 0.0
2014-Jul-18 11:33N 43°32' E 007°01'0 0.0
2014-Jul-18 10:25N 43°32' E 007°01'0 0.1
2014-Jul-18 09:32N 43°32' E 007°01'0 0.0
2014-Jul-18 08:32N 43°32' E 007°01'0 0.0
2014-Jul-18 07:27N 43°32' E 007°01'0 0.0
2014-Jul-18 06:28N 43°32' E 007°01'0 0.0
2014-Jul-18 05:33N 43°32' E 007°01'4 4.0
2014-Jul-18 04:33N 43°28' E 007°03'1110.5
2014-Jul-18 03:33N 43°28' E 007°17'1313.5
2014-Jul-18 02:33N 43°29' E 007°36'1413.7
2014-Jul-18 01:33N 43°29' E 007°55'1313.2
2014-Jul-18 00:34N 43°30' E 008°13'1312.8
2014-Jul-17 23:34N 43°30' E 008°30'1312.9
2014-Jul-17 22:33N 43°30' E 008°48'1212.5
2014-Jul-17 21:34N 43°31' E 009°05'1212.4
2014-Jul-17 20:34N 43°31' E 009°22'1313.3
2014-Jul-17 19:33N 43°32' E 009°41'1414.4
2014-Jul-17 18:33N 43°30' E 010°01'1212.5
2014-Jul-17 17:34N 43°33' E 010°17'1 0.8
2014-Jul-17 16:31N 43°33' E 010°18'0 0.0
2014-Jul-17 15:32N 43°33' E 010°18'0 0.0
2014-Jul-17 14:33N 43°33' E 010°18'0 0.0
2014-Jul-17 13:33N 43°33' E 010°18'0 0.0
2014-Jul-17 12:33N 43°33' E 010°18'0 0.0
2014-Jul-17 11:33N 43°33' E 010°18'0 0.0
2014-Jul-17 10:33N 43°33' E 010°18'0 0.0
2014-Jul-17 09:33N 43°33' E 010°18'0 0.0
2014-Jul-17 08:33N 43°33' E 010°18'0 0.0
2014-Jul-17 07:33N 43°33' E 010°18'0 0.0
2014-Jul-17 06:33N 43°33' E 010°18'0 0.0
2014-Jul-17 05:33N 43°33' E 010°18'0 0.3
2014-Jul-17 04:34N 43°33' E 010°17'10 9.7
2014-Jul-17 03:33N 43°25' E 010°11'1515.2
2014-Jul-17 02:33N 43°10' E 010°05'1515.0
2014-Jul-17 01:33N 42°56' E 009°59'1515.0
2014-Jul-17 00:33N 42°41' E 009°55'1119.8
2014-Jul-17 00:00N 42°30' E 009°54'4 9.0 010 / 201017.0 5.4 21.0
2014-Jul-16 23:34N 42°26' E 009°54'1312.9
2014-Jul-16 22:33N 42°16' E 010°04'1815.3
2014-Jul-16 21:23N 42°09' E 010°26'1615.3
2014-Jul-16 20:20N 42°04' E 010°47'1615.3
2014-Jul-16 19:16N 42°01' E 011°09'54 2.9
2014-Jul-16 00:33N 41°31' E 012°08'1323.3
2014-Jul-16 00:00N 41°18' E 012°12'613.8 350 / 121015.0 5.4 22.0
2014-Jul-15 23:33N 41°15' E 012°19'2517.4
2014-Jul-15 22:07N 40°55' E 012°38'1017.7
2014-Jul-15 21:33N 40°48' E 012°48'1616.3
2014-Jul-15 20:33N 40°42' E 013°08'1717.0
2014-Jul-15 19:33N 40°40' E 013°30'1717.1
2014-Jul-15 18:33N 40°38' E 013°52'1716.8
2014-Jul-15 17:33N 40°45' E 014°13'6 0.4
2014-Jul-15 04:33N 40°50' E 014°16'10 9.6
2014-Jul-15 03:33N 40°42' E 014°09'1312.9
2014-Jul-15 02:33N 40°38' E 013°53'1313.4
2014-Jul-15 01:33N 40°39' E 013°35'1413.8
2014-Jul-15 00:33N 40°40' E 013°17'1017.3
2014-Jul-15 00:00N 40°36' E 013°06'90350.2 340 / 141014.010.8 20.0
2014-Jul-14 06:00N 41°12' W 006°48'559159.2 320 / 241015.0 5.4 1.019.017.520.0
2014-Jul-14 02:29N 41°16' E 005°35'1816.0
2014-Jul-14 01:22N 41°16' E 005°12'1315.9
2014-Jul-14 00:32N 41°16' E 004°54'1018.5
2014-Jul-14 00:00N 41°12' E 004°42'   270 / 81016.0 5.4 20.0
Track history (hours):
 
Tides and Currents Weather Stations Pressure Air Temp Water Temp Dewpoint Dewpoint Depression Visibility Wind Speed Wind Dir Waves Ship Positions

Norwegian Epic

Last reported at 2014-Jul-23 23:33 UTC. Time now 2014-Jul-24 00:18 UTC.
Position N 42°25' E 009°53'.

Length 329 m; draft 9 m.

Type: Passenger vessel. MMSI: 311018500.

Date/timePositionNaut miles runAvg speedWind from/ knotsBaromVisibWave heightAir tempDewpointWater temp
2014-Jul-23 23:33N 42°25' E 009°53'1312.5
2014-Jul-23 22:33N 42°15' E 010°04'2115.3
2014-Jul-23 21:10N 42°08' E 010°31'1315.4
2014-Jul-23 20:18N 42°04' E 010°48'1215.5
2014-Jul-23 19:33N 42°01' E 011°03'60 3.1
2014-Jul-23 00:00N 41°24' E 012°06'6317.5 1009.010.8 1.022.0 22.0
2014-Jul-22 20:23N 40°42' E 013°08'1518.4
2014-Jul-22 19:33N 40°40' E 013°28'1818.4
2014-Jul-22 18:33N 40°38' E 013°52'1717.4
2014-Jul-22 17:33N 40°45' E 014°13'5 0.7
2014-Jul-22 09:23N 40°50' E 014°16'0 0.0
2014-Jul-22 04:25N 40°50' E 014°16'8 9.9
2014-Jul-22 03:33N 40°42' E 014°11'1313.0
2014-Jul-22 02:33N 40°38' E 013°55'1514.7
2014-Jul-22 01:34N 40°39' E 013°36'1616.0
2014-Jul-22 00:34N 40°41' E 013°15'10816.5
2014-Jul-21 18:00N 41°00' E 010°54'24515.8 360 / 271011.010.8 2.522.015.823.0
2014-Jul-21 02:30N 41°16' E 005°30'1915.8
2014-Jul-21 01:20N 41°16' E 005°05'1416.0
2014-Jul-21 00:28N 41°16' E 004°46'1516.0
2014-Jul-20 23:33N 41°16' E 004°27'1616.0
2014-Jul-20 22:33N 41°16' E 004°06'1916.1
2014-Jul-20 21:22N 41°16' E 003°40'1214.9
2014-Jul-20 20:32N 41°16' E 003°24'1515.4
2014-Jul-20 19:33N 41°16' E 003°04'1615.9
2014-Jul-20 18:31N 41°16' E 002°42'1414.9
2014-Jul-20 17:33N 41°15' E 002°23'1110.9
2014-Jul-20 16:33N 41°21' E 002°10'1 1.0
2014-Jul-20 15:29N 41°22' E 002°11'0 0.0
2014-Jul-20 14:33N 41°22' E 002°11'0 0.0
2014-Jul-20 13:31N 41°22' E 002°11'0 0.0
2014-Jul-20 12:31N 41°22' E 002°11'0 0.0
2014-Jul-20 11:26N 41°22' E 002°11'0 0.0
2014-Jul-20 10:27N 41°22' E 002°11'0 0.0
2014-Jul-20 09:21N 41°22' E 002°11'0 0.0
2014-Jul-20 08:28N 41°22' E 002°11'0 0.0
2014-Jul-20 07:29N 41°22' E 002°11'0 0.0
2014-Jul-20 06:29N 41°22' E 002°11'0 0.0
2014-Jul-20 05:30N 41°22' E 002°11'0 0.0
2014-Jul-20 04:25N 41°22' E 002°11'0 0.0
2014-Jul-20 03:31N 41°22' E 002°11'0 0.0
2014-Jul-20 02:29N 41°22' E 002°11'4 4.0
2014-Jul-20 01:34N 41°18' E 002°11'1615.8
2014-Jul-20 00:33N 41°02' E 002°11'1526.2
2014-Jul-20 00:00N 40°48' E 002°06'716.1 320 / 61010.0 5.4 23.0
2014-Jul-19 23:34N 40°43' E 002°12'1919.2
2014-Jul-19 22:33N 40°23' E 002°12'1817.8
2014-Jul-19 21:33N 40°05' E 002°12'1818.4
2014-Jul-19 20:33N 39°47' E 002°13'1716.6
2014-Jul-19 19:33N 39°31' E 002°17'1414.5
2014-Jul-19 18:33N 39°27' E 002°35'6 6.3
2014-Jul-19 17:33N 39°33' E 002°38'0 0.0
2014-Jul-19 16:32N 39°33' E 002°38'0 0.0
2014-Jul-19 15:32N 39°33' E 002°38'0 0.0
2014-Jul-19 14:33N 39°33' E 002°38'0 0.0
2014-Jul-19 13:31N 39°33' E 002°38'0 0.0
2014-Jul-19 12:31N 39°33' E 002°38'0 0.0
2014-Jul-19 11:32N 39°33' E 002°38'0 0.0
2014-Jul-19 10:33N 39°33' E 002°38'4 3.7
2014-Jul-19 09:33N 39°30' E 002°37'1515.1
2014-Jul-19 08:33N 39°31' E 002°17'1817.8
2014-Jul-19 07:33N 39°47' E 002°25'2121.0
2014-Jul-19 06:33N 40°04' E 002°43'1221.4
2014-Jul-19 06:00N 40°12' E 002°54'920.8 020 / 561010.010.8 2.023.020.124.0
2014-Jul-19 05:33N 40°19' E 003°02'2121.0
2014-Jul-19 04:34N 40°33' E 003°22'2121.0
2014-Jul-19 03:33N 40°48' E 003°41'2120.9
2014-Jul-19 02:34N 41°03' E 004°01'2120.6
2014-Jul-19 01:33N 41°17' E 004°21'2120.7
2014-Jul-19 00:33N 41°33' E 004°39'813.4
2014-Jul-19 00:00N 41°36' E 004°48'1432.2 150 / 141015.010.8 21.0
2014-Jul-18 23:34N 41°47' E 005°00'2121.2
2014-Jul-18 22:34N 42°01' E 005°21'2121.2
2014-Jul-18 21:34N 42°16' E 005°41'2121.4
2014-Jul-18 20:33N 42°31' E 006°02'2121.3
2014-Jul-18 19:33N 42°46' E 006°22'2222.1
2014-Jul-18 18:33N 43°02' E 006°43'2221.6
2014-Jul-18 17:33N 43°21' E 006°57'1111.4
2014-Jul-18 16:33N 43°32' E 007°01'0 0.1
2014-Jul-18 15:28N 43°32' E 007°01'0 0.0
2014-Jul-18 14:29N 43°32' E 007°01'0 0.0
2014-Jul-18 13:29N 43°32' E 007°01'0 0.0
2014-Jul-18 12:30N 43°32' E 007°01'0 0.0
2014-Jul-18 11:33N 43°32' E 007°01'0 0.0
2014-Jul-18 10:25N 43°32' E 007°01'0 0.1
2014-Jul-18 09:32N 43°32' E 007°01'0 0.0
2014-Jul-18 08:32N 43°32' E 007°01'0 0.0
2014-Jul-18 07:27N 43°32' E 007°01'0 0.0
2014-Jul-18 06:28N 43°32' E 007°01'0 0.0
2014-Jul-18 05:33N 43°32' E 007°01'4 4.0
2014-Jul-18 04:33N 43°28' E 007°03'1110.5
2014-Jul-18 03:33N 43°28' E 007°17'1313.5
2014-Jul-18 02:33N 43°29' E 007°36'1413.7
2014-Jul-18 01:33N 43°29' E 007°55'1313.2
2014-Jul-18 00:34N 43°30' E 008°13'1312.8
2014-Jul-17 23:34N 43°30' E 008°30'1312.9
2014-Jul-17 22:33N 43°30' E 008°48'1212.5
2014-Jul-17 21:34N 43°31' E 009°05'1212.4
2014-Jul-17 20:34N 43°31' E 009°22'1313.3
2014-Jul-17 19:33N 43°32' E 009°41'1414.4
2014-Jul-17 18:33N 43°30' E 010°01'1212.5
2014-Jul-17 17:34N 43°33' E 010°17'1 0.8
2014-Jul-17 16:31N 43°33' E 010°18'0 0.0
2014-Jul-17 15:32N 43°33' E 010°18'0 0.0
2014-Jul-17 14:33N 43°33' E 010°18'0 0.0
2014-Jul-17 13:33N 43°33' E 010°18'0 0.0
2014-Jul-17 12:33N 43°33' E 010°18'0 0.0
2014-Jul-17 11:33N 43°33' E 010°18'0 0.0
2014-Jul-17 10:33N 43°33' E 010°18'0 0.0
2014-Jul-17 09:33N 43°33' E 010°18'0 0.0
2014-Jul-17 08:33N 43°33' E 010°18'0 0.0
2014-Jul-17 07:33N 43°33' E 010°18'0 0.0
2014-Jul-17 06:33N 43°33' E 010°18'0 0.0
2014-Jul-17 05:33N 43°33' E 010°18'0 0.3
2014-Jul-17 04:34N 43°33' E 010°17'10 9.7
2014-Jul-17 03:33N 43°25' E 010°11'1515.2
2014-Jul-17 02:33N 43°10' E 010°05'1515.0
2014-Jul-17 01:33N 42°56' E 009°59'1515.0
2014-Jul-17 00:33N 42°41' E 009°55'1119.8
2014-Jul-17 00:00N 42°30' E 009°54'4 9.0 010 / 201017.0 5.4 21.0
2014-Jul-16 23:34N 42°26' E 009°54'1312.9
2014-Jul-16 22:33N 42°16' E 010°04'1815.3
2014-Jul-16 21:23N 42°09' E 010°26'1615.3
2014-Jul-16 20:20N 42°04' E 010°47'1615.3
2014-Jul-16 19:16N 42°01' E 011°09'54 2.9
2014-Jul-16 00:33N 41°31' E 012°08'1323.3
2014-Jul-16 00:00N 41°18' E 012°12'613.8 350 / 121015.0 5.4 22.0
2014-Jul-15 23:33N 41°15' E 012°19'2517.4
2014-Jul-15 22:07N 40°55' E 012°38'1017.7
2014-Jul-15 21:33N 40°48' E 012°48'1616.3
2014-Jul-15 20:33N 40°42' E 013°08'1717.0
2014-Jul-15 19:33N 40°40' E 013°30'1717.1
2014-Jul-15 18:33N 40°38' E 013°52'1716.8
2014-Jul-15 17:33N 40°45' E 014°13'6 0.4
2014-Jul-15 04:33N 40°50' E 014°16'10 9.6
2014-Jul-15 03:33N 40°42' E 014°09'1312.9
2014-Jul-15 02:33N 40°38' E 013°53'1313.4
2014-Jul-15 01:33N 40°39' E 013°35'1413.8
2014-Jul-15 00:33N 40°40' E 013°17'1017.3
2014-Jul-15 00:00N 40°36' E 013°06'90350.2 340 / 141014.010.8 20.0
2014-Jul-14 06:00N 41°12' W 006°48'559159.2 320 / 241015.0 5.4 1.019.017.520.0
2014-Jul-14 02:29N 41°16' E 005°35'1816.0
2014-Jul-14 01:22N 41°16' E 005°12'1315.9
2014-Jul-14 00:32N 41°16' E 004°54'1018.5
2014-Jul-14 00:00N 41°12' E 004°42'   270 / 81016.0 5.4 20.0

Dump ship's entire track history